aviador You're here:

SKSP Decoded Metar

SAN ANDRES ISLAND in COLOMBIA
Report Time2018-01-17 05:00:00
UTC Time2018-01-17 05:12:16
Flight Rules vfr VFR
Wind040° at 11 kt
W.Decomp.*RWY 06: 10.5 kt HW 3.4 kt LCW
W.Rank040° ranks 6
Current wind is above 040° avg. (7.2)
Visibility9999 m
Phenomena:N/A
Clouds:Few 014 Hf
Broken 080 Hf
Expected CloudBase > 1,200 ft AGL from Temp-Dew spread
Ceiling8,000 ft
Temp26°C (ISA +11)
Dew Point23°C (84% RH)
QNH1015 hPa
Density Alt1,565 ft
Elevation-7 ft
Report Wrong Elevation
Raw Report
METAR SKSP 170500Z 04011KT 9999 FEW014 BKN080 26/23 A2996=

Extra information for SKSP:More info

Metar Taf Metar & Taf Last 4 Metars F.Rules Stats Wind Profile Meteogram Temp Stats Airport Information Weather charts Add Link Nearby VenuesMetar ALERT Operation Metar Decoded Social comments